»·PEaware :: N626PX KBOI-KMYL

N626PX :: KBOI-KMYL

FLIGHT INFORMATION

Flight Status: Arrived
Operator: Privately registered:
United States
More flights under this callsign
Pilot: Alvin H. (31449)
Aircraft: SOCATA TBM-900
(TBM9)
More flights by this aircraft type
Origin: KBOI Boise Air Terminal/Gowen
United States
Destination: KMYL McCall
United States
More flights between these airports :: More routes between these airports
Route: KBOI KMYL
File this flight plan on PilotEdge
Remarks:
Altitude:
(Current/Filed)
10,500ft
Speed:
(Current/Filed)
220kts
Departed: 15-Sep-20 06:59 PM
Arrived: 15-Sep-20 07:25 PM
Distance/Time
Traveled:
6521nm/0:26
Distance/Time
To Go:
Arrived

Flight Plot

Page will automatically refresh every two minutes.

Flight plan parsing failed; only flown route is shown


Map Options




Map Legend


Flown Route
Filed Route
Departure Airport
Arrival Airport
Navaid (VOR, NDB)
Fix

Horizontal Profiles

Position Reports

Time Latitude Longitude Heading Altitude Ground
Speed
15-Sep-20 18:20 43.565598 -116.215284 358 2858ft 0kts
15-Sep-20 18:21 43.565598 -116.215284 358 2858ft 0kts
15-Sep-20 18:22 43.565598 -116.215284 358 2858ft 0kts
15-Sep-20 18:23 43.565598 -116.215284 358 2858ft 0kts
15-Sep-20 18:24 43.565598 -116.215284 358 2858ft 0kts
15-Sep-20 18:25 43.565598 -116.215284 358 2858ft 0kts
15-Sep-20 18:26 43.565598 -116.215284 358 2858ft 0kts
15-Sep-20 18:27 43.565598 -116.215284 358 2858ft 0kts
15-Sep-20 18:28 43.565598 -116.215284 358 2858ft 0kts
15-Sep-20 18:29 43.565598 -116.215284 358 2858ft 0kts
15-Sep-20 18:30 43.565598 -116.215284 358 2858ft 0kts
15-Sep-20 18:31 43.565598 -116.215284 358 2858ft 0kts
15-Sep-20 18:32 43.565598 -116.215284 358 2858ft 0kts
15-Sep-20 18:33 43.565598 -116.215284 358 2858ft 0kts
15-Sep-20 18:34 43.565597 -116.215283 358 2857ft 0kts
15-Sep-20 18:35 43.565598 -116.215284 359 2858ft 0kts
15-Sep-20 18:36 43.565598 -116.215284 359 2858ft 0kts
15-Sep-20 18:37 43.565598 -116.215284 359 2858ft 0kts
15-Sep-20 18:38 43.565598 -116.215284 359 2858ft 0kts
15-Sep-20 18:39 43.565598 -116.215284 359 2858ft 0kts
15-Sep-20 18:40 43.565598 -116.215284 359 2858ft 0kts
15-Sep-20 18:41 43.565598 -116.215284 359 2858ft 0kts
15-Sep-20 18:42 43.565598 -116.215284 359 2858ft 0kts
15-Sep-20 18:43 43.565598 -116.215284 359 2858ft 0kts
15-Sep-20 18:44 43.565598 -116.215284 359 2858ft 0kts
15-Sep-20 18:45 43.565598 -116.215284 359 2858ft 0kts
15-Sep-20 18:47 43.565598 -116.215284 359 2858ft 0kts
15-Sep-20 18:48 43.565598 -116.215284 359 2858ft 0kts
15-Sep-20 18:49 43.565598 -116.215284 359 2858ft 0kts
15-Sep-20 18:50 43.565598 -116.215284 359 2858ft 0kts
15-Sep-20 18:51 43.565598 -116.215284 359 2858ft 0kts
15-Sep-20 18:52 43.565643 -116.215313 291 2857ft 0kts
15-Sep-20 18:53 43.564976 -116.218048 295 2856ft 17kts
15-Sep-20 18:54 43.567851 -116.226445 295 2846ft 23kts
15-Sep-20 18:55 43.570424 -116.234054 295 2837ft 18kts
15-Sep-20 18:56 43.571004 -116.236226 209 2835ft 0kts
15-Sep-20 18:57 43.571004 -116.236226 209 2835ft 0kts
15-Sep-20 18:58 43.570072 -116.236265 115 2837ft 14kts
15-Sep-20 18:59 43.556662 -116.198395 111 3529ft 164kts
15-Sep-20 19:00 43.559907 -116.137477 51 5382ft 181kts
15-Sep-20 19:01 43.586042 -116.072785 68 6595ft 200kts
15-Sep-20 19:02 43.604013 -116.001002 71 8012ft 198kts
15-Sep-20 19:03 43.643417 -115.959692 17 9228ft 184kts
15-Sep-20 19:03 43.684414 -115.944625 6 10305ft 180kts
15-Sep-20 19:05 43.744927 -115.947477 356 10811ft 212kts
15-Sep-20 19:06 43.810748 -115.951830 356 10504ft 248kts
15-Sep-20 19:06 43.868435 -115.955236 357 10484ft 246kts
15-Sep-20 19:07 43.935307 -115.958859 357 10472ft 240kts
15-Sep-20 19:09 44.013013 -115.962820 357 10398ft 239kts
15-Sep-20 19:09 44.068115 -115.966460 354 10397ft 238kts
15-Sep-20 19:10 44.133694 -115.974624 354 10397ft 238kts
15-Sep-20 19:11 44.199488 -115.982858 354 10400ft 237kts
15-Sep-20 19:12 44.265530 -115.990968 354 10398ft 238kts
15-Sep-20 19:13 44.331494 -115.998793 354 10397ft 238kts
15-Sep-20 19:14 44.397424 -116.006793 354 10395ft 238kts
15-Sep-20 19:15 44.463296 -116.014725 354 10393ft 237kts
15-Sep-20 19:16 44.528840 -116.022573 354 10392ft 237kts
15-Sep-20 19:17 44.594323 -116.030356 354 10520ft 235kts
15-Sep-20 19:18 44.659907 -116.038099 356 10554ft 225kts
15-Sep-20 19:19 44.717452 -116.038479 358 9345ft 194kts
15-Sep-20 19:20 44.770403 -116.058240 340 7629ft 197kts
15-Sep-20 19:21 44.812505 -116.095897 336 7077ft 139kts
15-Sep-20 19:22 44.845441 -116.100488 357 6203ft 100kts
15-Sep-20 19:23 44.873314 -116.101295 358 5273ft 102kts
15-Sep-20 19:24 44.891651 -116.101925 358 5020ft 8kts
15-Sep-20 19:25 44.892752 -116.101181 357 5022ft 6kts
15-Sep-20 19:26 44.895639 -116.100568 81 5026ft 9kts
15-Sep-20 19:27 44.895590 -116.098560 343 5026ft 1kts
15-Sep-20 19:28 44.895657 -116.098729 302 5026ft 0kts
15-Sep-20 19:29 0.000408 0.013975 0 3ft 0kts

Navigation Log

Ident Type
Flight plan parsing failed, navigation log unavailable